Time;durP1;ratioP1;P1;durP2;ratioP2;P2;SDS_P1;SDS_P2;PMS_P1;PMS_P2;Temp;Humidity;BMP_temperature;BMP_pressure;BME280_temperature;BME280_humidity;BME280_pressure;Samples;Min_cycle;Max_cycle;Signal;HPM_P1;HPM_P2
2023/08/11 04:00:31;;;;;;;0.60;0.23;;;18.10;88.50;;;;;;5945254;23;22173;31
2023/08/11 04:02:58;;;;;;;0.60;0.20;;;18.10;88.40;;;;;;4912290;29;20460;-76
2023/08/11 04:05:27;;;;;;;0.60;0.10;;;18.10;91.00;;;;;;4916651;29;20926;-78
2023/08/11 04:07:55;;;;;;;0.60;0.10;;;18.10;90.80;;;;;;4915956;29;20475;-78
2023/08/11 04:10:24;;;;;;;0.60;0.20;;;18.10;91.10;;;;;;4922117;29;20460;-79
2023/08/11 04:12:52;;;;;;;0.60;0.20;;;18.10;90.50;;;;;;4941028;29;20463;-80
2023/08/11 04:15:20;;;;;;;0.60;0.10;;;18.20;88.30;;;;;;5011051;23;21038;-76
2023/08/11 04:17:49;;;;;;;0.60;0.20;;;18.20;87.00;;;;;;4945801;29;20454;-77
2023/08/11 04:20:18;;;;;;;0.60;0.10;;;18.00;85.60;;;;;;4953418;29;20455;-76
2023/08/11 04:22:45;;;;;;;0.60;0.17;;;18.00;88.20;;;;;;4954596;28;20482;-77
2023/08/11 04:25:14;;;;;;;0.60;0.10;;;18.10;87.90;;;;;;4955053;28;20951;-76
2023/08/11 04:27:42;;;;;;;0.60;0.20;;;;;;;;;;4955932;28;20446;-77
2023/08/11 04:30:12;;;;;;;0.60;0.10;;;18.00;87.40;;;;;;4955536;28;20447;-76
2023/08/11 04:32:40;;;;;;;0.60;0.10;;;17.80;88.70;;;;;;4955971;28;20446;-77
2023/08/11 04:35:10;;;;;;;0.60;0.10;;;17.80;90.80;;;;;;4955445;28;20485;-76
2023/08/11 04:37:38;;;;;;;0.60;0.10;;;17.70;90.60;;;;;;4953801;28;20955;-71
2023/08/11 04:40:09;;;;;;;0.60;0.10;;;17.60;93.40;;;;;;4953246;28;20458;-71
2023/08/11 04:42:37;;;;;;;0.60;0.10;;;17.50;94.90;;;;;;4953128;28;20450;-71
2023/08/11 04:45:06;;;;;;;0.60;0.10;;;17.50;98.10;;;;;;4950071;28;20583;-76
2023/08/11 04:47:34;;;;;;;0.60;0.10;;;17.50;99.90;;;;;;4953397;28;20554;-77
2023/08/11 04:50:02;;;;;;;0.60;0.10;;;17.60;99.90;;;;;;4955801;28;20543;-77
2023/08/11 04:52:32;;;;;;;0.60;0.10;;;17.80;99.90;;;;;;4957675;28;20979;-77
2023/08/11 04:55:00;;;;;;;3.37;1.90;;;17.80;99.90;;;;;;4956052;28;20503;-76
2023/08/11 04:57:28;;;;;;;0.60;0.10;;;17.90;99.90;;;;;;4956505;28;20482;-77
2023/08/11 04:59:56;;;;;;;0.60;0.10;;;18.00;99.90;;;;;;4955829;28;20443;-77
2023/08/11 05:02:24;;;;;;;0.60;0.20;;;18.00;99.90;;;;;;4956983;28;20447;-77
2023/08/11 05:04:52;;;;;;;0.60;0.10;;;18.10;99.90;;;;;;4957356;28;21078;-77
2023/08/11 05:07:20;;;;;;;0.60;0.10;;;18.20;99.90;;;;;;4960110;28;20474;-77
2023/08/11 05:09:50;;;;;;;0.60;0.10;;;18.30;99.10;;;;;;4957539;28;20835;-78
2023/08/11 05:12:18;;;;;;;0.60;0.20;;;18.30;98.40;;;;;;4959005;28;20443;-77
2023/08/11 05:14:47;;;;;;;0.60;0.10;;;18.40;97.90;;;;;;4966049;28;20505;-77
2023/08/11 05:17:15;;;;;;;0.60;0.10;;;18.40;96.70;;;;;;4967186;28;20478;-77
2023/08/11 05:19:43;;;;;;;4.53;1.70;;;18.30;94.70;;;;;;4969286;28;20486;-77
2023/08/11 05:22:12;;;;;;;0.60;0.20;;;18.20;92.70;;;;;;4969951;28;20512;-77
2023/08/11 05:24:40;;;;;;;0.60;0.13;;;18.20;91.20;;;;;;4961423;28;20471;-75
2023/08/11 05:27:09;;;;;;;0.60;0.20;;;18.20;92.00;;;;;;4956259;28;20875;-77
2023/08/11 05:29:37;;;;;;;0.60;0.20;;;18.30;92.80;;;;;;4959214;28;20455;-77
2023/08/11 05:32:05;;;;;;;0.70;0.33;;;18.30;92.50;;;;;;4957826;28;20518;-77
2023/08/11 05:34:33;;;;;;;0.60;0.10;;;18.40;91.10;;;;;;4958969;28;20494;-76
2023/08/11 05:37:03;;;;;;;0.60;0.20;;;18.40;87.60;;;;;;4955859;28;20514;-77
2023/08/11 05:39:32;;;;;;;0.60;0.20;;;18.40;83.10;;;;;;4956988;28;20486;-78
2023/08/11 05:42:00;;;;;;;0.60;0.20;;;18.40;81.80;;;;;;4956650;28;20452;-76
2023/08/11 05:44:29;;;;;;;0.70;0.40;;;18.40;80.60;;;;;;4955865;28;20477;-75
2023/08/11 05:46:57;;;;;;;0.60;0.10;;;18.40;81.70;;;;;;4957673;28;20983;-77
2023/08/11 05:49:24;;;;;;;0.60;0.10;;;18.50;81.90;;;;;;4956383;28;20537;-77
2023/08/11 05:51:53;;;;;;;0.60;0.10;;;;;;;;;;4951555;28;20463;-77
2023/08/11 05:54:20;;;;;;;0.60;0.10;;;18.50;79.40;;;;;;4954254;28;20498;-79
2023/08/11 05:56:48;;;;;;;0.60;0.20;;;18.50;79.00;;;;;;4935006;29;20530;-79
2023/08/11 05:59:17;;;;;;;0.60;0.17;;;18.50;77.70;;;;;;4935092;29;20703;-79
2023/08/11 06:01:46;;;;;;;1.33;1.07;;;18.50;76.10;;;;;;4945386;28;20497;-78
2023/08/11 06:04:14;;;;;;;0.60;0.20;;;18.50;73.20;;;;;;4941207;28;20523;-77
2023/08/11 06:06:42;;;;;;;0.60;0.10;;;18.60;70.80;;;;;;4934119;29;20902;-78
2023/08/11 06:09:10;;;;;;;0.90;0.73;;;18.60;68.80;;;;;;4936194;28;20499;-78
2023/08/11 06:11:38;;;;;;;0.60;0.10;;;18.60;68.60;;;;;;4955540;28;20510;-78
2023/08/11 06:14:06;;;;;;;0.80;0.20;;;18.60;67.70;;;;;;4953239;28;20455;-78
2023/08/11 06:16:34;;;;;;;0.60;0.20;;;;;;;;;;4936457;29;21058;-79
2023/08/11 06:19:05;;;;;;;0.60;0.10;;;;;;;;;;4954500;28;20456;-78
2023/08/11 06:21:33;;;;;;;0.60;0.10;;;;;;;;;;4936458;29;20465;-79
2023/08/11 06:24:01;;;;;;;0.80;0.20;;;18.80;71.10;;;;;;4936224;29;20455;-79
2023/08/11 06:26:29;;;;;;;0.60;0.10;;;18.80;70.40;;;;;;4936067;29;20483;-79
2023/08/11 06:28:57;;;;;;;0.60;0.20;;;18.80;69.50;;;;;;4936487;29;20542;-80
2023/08/11 06:31:25;;;;;;;0.60;0.10;;;;;;;;;;4936741;29;20539;-80
2023/08/11 06:33:53;;;;;;;0.60;0.10;;;18.90;69.80;;;;;;4936237;29;20464;-79
2023/08/11 06:36:23;;;;;;;0.60;0.10;;;;;;;;;;4935726;29;20502;-79
2023/08/11 06:38:51;;;;;;;0.60;0.10;;;18.90;69.20;;;;;;4935026;29;20505;-79
2023/08/11 06:41:19;;;;;;;0.60;0.20;;;18.90;67.10;;;;;;4952133;28;20502;-79
2023/08/11 06:43:47;;;;;;;0.60;0.10;;;19.00;64.60;;;;;;4955161;28;20465;-78
2023/08/11 06:46:15;;;;;;;0.60;0.17;;;19.00;63.80;;;;;;4954112;28;20578;-78
2023/08/11 06:48:43;;;;;;;0.60;0.10;;;18.90;65.00;;;;;;4955129;28;21113;-78
2023/08/11 06:51:11;;;;;;;0.60;0.13;;;19.00;63.80;;;;;;4955221;28;20448;-79
2023/08/11 06:53:40;;;;;;;0.60;0.10;;;19.10;63.80;;;;;;4954848;28;20455;-79
2023/08/11 06:56:08;;;;;;;0.60;0.10;;;19.20;65.10;;;;;;4941970;28;20469;-78
2023/08/11 06:58:36;;;;;;;0.60;0.10;;;19.20;64.20;;;;;;4936276;29;20483;-78
2023/08/11 07:01:04;;;;;;;0.60;0.10;;;19.20;65.20;;;;;;4935892;29;20470;-79
2023/08/11 07:03:33;;;;;;;0.60;0.10;;;19.20;65.30;;;;;;4935966;29;20494;-78
2023/08/11 07:06:02;;;;;;;0.60;0.20;;;19.40;65.50;;;;;;4940603;28;20563;-79
2023/08/11 07:08:30;;;;;;;0.60;0.10;;;19.50;82.90;;;;;;4955792;28;20447;-78
2023/08/11 07:10:59;;;;;;;0.60;0.10;;;19.60;83.60;;;;;;4954255;28;20486;-79
2023/08/11 07:13:27;;;;;;;0.60;0.20;;;19.70;74.60;;;;;;4955159;28;20490;-79
2023/08/11 07:15:56;;;;;;;0.60;0.10;;;19.80;68.80;;;;;;4956627;28;20963;-78
2023/08/11 07:18:24;;;;;;;0.60;0.20;;;19.90;65.10;;;;;;4955557;28;20889;-77
2023/08/11 07:20:52;;;;;;;0.60;0.10;;;19.90;61.80;;;;;;4954871;28;20503;-77
2023/08/11 07:23:23;;;;;;;0.60;0.10;;;;;;;;;;4959661;28;20440;-80
2023/08/11 07:25:51;;;;;;;0.60;0.10;;;;;;;;;;4955236;28;20547;-77
2023/08/11 07:28:20;;;;;;;0.60;0.10;;;20.10;57.50;;;;;;4952650;28;21063;-79
2023/08/11 07:30:48;;;;;;;0.60;0.20;;;;;;;;;;4953297;28;20444;-78
2023/08/11 07:33:17;;;;;;;0.60;0.30;;;;;;;;;;4953355;28;20455;-78
2023/08/11 07:35:44;;;;;;;0.60;0.10;;;20.20;48.40;;;;;;4955088;28;20536;-79
2023/08/11 07:38:13;;;;;;;0.60;0.10;;;;;;;;;;4955418;28;20467;-79
2023/08/11 07:40:41;;;;;;;0.60;0.10;;;20.30;44.80;;;;;;4959248;28;20517;-80
2023/08/11 07:43:10;;;;;;;0.60;0.20;;;20.30;43.50;;;;;;4955254;28;20526;-78
2023/08/11 07:45:39;;;;;;;0.60;0.10;;;20.30;43.10;;;;;;4954069;28;20478;-79
2023/08/11 07:48:08;;;;;;;0.60;0.10;;;;;;;;;;4953253;28;20567;-78
2023/08/11 07:50:37;;;;;;;0.60;0.10;;;20.30;42.30;;;;;;4936488;29;20463;-80
2023/08/11 07:53:05;;;;;;;0.60;0.10;;;;;;;;;;4954337;28;20525;-79
2023/08/11 07:55:33;;;;;;;0.60;0.20;;;20.50;40.60;;;;;;4956737;28;20459;-79
2023/08/11 07:58:01;;;;;;;0.60;0.10;;;20.60;40.50;;;;;;4960646;28;20440;-78
2023/08/11 08:00:29;;;;;;;0.60;0.10;;;20.60;40.50;;;;;;4959061;28;20536;-79
2023/08/11 08:02:58;;;;;;;0.60;0.10;;;20.70;39.70;;;;;;4957539;28;20934;-78
2023/08/11 08:05:26;;;;;;;0.60;0.10;;;20.80;38.20;;;;;;4955615;28;20559;-78
2023/08/11 08:07:54;;;;;;;0.60;0.20;;;;;;;;;;4953365;28;20483;-79
2023/08/11 08:10:25;;;;;;;0.60;0.10;;;;;;;;;;4953559;28;20484;-79
2023/08/11 08:12:53;;;;;;;0.60;0.10;;;20.90;35.70;;;;;;4954544;28;20457;-78
2023/08/11 08:15:23;;;;;;;0.60;0.20;;;;;;;;;;4954831;28;20538;-78
2023/08/11 08:17:51;;;;;;;0.60;0.10;;;;;;;;;;4953559;28;20446;-79
2023/08/11 08:20:21;;;;;;;0.60;0.20;;;21.10;38.20;;;;;;4953113;28;20459;-79
2023/08/11 08:22:49;;;;;;;0.60;0.10;;;21.10;37.40;;;;;;4955989;28;20503;-79
2023/08/11 08:25:17;;;;;;;0.60;0.10;;;;;;;;;;4955200;28;20475;-80
2023/08/11 08:27:45;;;;;;;0.60;0.10;;;21.30;35.30;;;;;;4955226;28;20476;-80
2023/08/11 08:30:13;;;;;;;1.80;1.70;;;;;;;;;;4953929;28;20449;-79
2023/08/11 08:32:42;;;;;;;0.60;0.20;;;21.40;32.70;;;;;;4953170;28;20448;-79
2023/08/11 08:35:10;;;;;;;0.60;0.20;;;21.40;32.20;;;;;;4954664;28;20461;-79
2023/08/11 08:37:40;;;;;;;0.60;0.10;;;21.50;32.30;;;;;;4953307;28;20478;-79
2023/08/11 08:40:09;;;;;;;0.60;0.10;;;21.60;30.30;;;;;;4956721;28;20457;-79
2023/08/11 08:42:38;;;;;;;0.60;0.10;;;21.60;30.10;;;;;;4957569;28;20869;-78
2023/08/11 08:45:07;;;;;;;0.60;0.10;;;21.70;28.10;;;;;;4955426;28;20471;-78
2023/08/11 08:47:36;;;;;;;0.60;0.10;;;21.70;25.00;;;;;;4947152;28;20528;-80
2023/08/11 08:50:05;;;;;;;0.60;0.10;;;21.70;22.60;;;;;;4964622;28;20865;-81
2023/08/11 08:52:34;;;;;;;0.60;0.20;;;;;;;;;;4959521;28;20449;-80
2023/08/11 08:55:04;;;;;;;0.60;0.20;;;21.80;21.20;;;;;;4959741;28;20484;-80
2023/08/11 08:57:31;;;;;;;0.60;0.20;;;21.90;19.60;;;;;;4962943;28;20974;-81
2023/08/11 09:00:00;;;;;;;0.60;0.20;;;21.90;16.90;;;;;;4970260;28;20467;-81
2023/08/11 09:02:29;;;;;;;0.60;0.10;;;22.00;14.90;;;;;;4969154;28;20444;-80
2023/08/11 09:04:57;;;;;;;0.60;0.10;;;;;;;;;;4966275;28;20495;-82
2023/08/11 09:07:27;;;;;;;0.60;0.10;;;;;;;;;;4966150;28;20445;-79
2023/08/11 09:09:55;;;;;;;0.60;0.10;;;;;;;;;;4961079;28;20494;-79
2023/08/11 09:12:27;;;;;;;0.60;0.10;;;22.30;12.30;;;;;;4965121;28;20457;-80
2023/08/11 09:14:55;;;;;;;0.60;0.13;;;22.30;11.40;;;;;;4961241;28;21086;-77
2023/08/11 09:17:23;;;;;;;0.60;0.10;;;;;;;;;;4957194;28;20458;-80
2023/08/11 09:19:52;;;;;;;0.60;0.20;;;22.40;12.20;;;;;;4957359;28;20455;-79
2023/08/11 09:22:25;;;;;;;0.60;0.10;;;22.50;11.70;;;;;;4959516;28;20517;-81
2023/08/11 09:24:55;;;;;;;0.60;0.10;;;22.60;8.50;;;;;;4961861;28;20505;-79
2023/08/11 09:27:25;;;;;;;0.60;0.10;;;;;;;;;;4964884;28;20442;-80
2023/08/11 09:29:56;;;;;;;0.60;0.20;;;22.70;3.00;;;;;;4964661;28;20481;-80
2023/08/11 09:32:24;;;;;;;0.60;0.20;;;22.80;4.10;;;;;;4965380;28;20449;-80
2023/08/11 09:34:54;;;;;;;0.60;0.20;;;;;;;;;;4963441;28;20459;-80
2023/08/11 09:37:22;;;;;;;0.60;0.10;;;;;;;;;;4969276;28;20435;-81
2023/08/11 09:39:55;;;;;;;0.60;0.20;;;23.00;6.50;;;;;;4970053;28;20443;-79
2023/08/11 09:42:28;;;;;;;0.60;0.10;;;23.10;6.20;;;;;;4970796;28;20439;-81
2023/08/11 09:44:56;;;;;;;0.60;0.10;;;23.20;7.20;;;;;;4942811;29;20802;-80
2023/08/11 09:47:24;;;;;;;1.20;0.20;;;;;;;;;;4961061;28;20502;-81
2023/08/11 09:49:53;;;;;;;0.60;0.10;;;;;;;;;;4962995;28;20490;-80
2023/08/11 09:52:21;;;;;;;0.60;0.20;;;;;;;;;;4961274;28;20454;-80
2023/08/11 09:54:50;;;;;;;0.70;0.30;;;23.50;6.50;;;;;;4959827;28;20521;-79
2023/08/11 09:57:21;;;;;;;0.60;0.10;;;23.50;6.50;;;;;;4962557;28;20524;-80
2023/08/11 09:59:53;;;;;;;0.60;0.10;;;23.60;7.40;;;;;;4960153;28;20474;-79
2023/08/11 10:02:25;;;;;;;0.60;0.20;;;23.70;7.80;;;;;;4957037;28;20447;-79
2023/08/11 10:04:57;;;;;;;0.60;0.10;;;23.80;5.30;;;;;;4959551;28;20556;-79
2023/08/11 10:07:37;;;;;;;0.60;0.10;;;23.90;2.70;;;;;;4964570;28;20817;-80
2023/08/11 10:10:09;;;;;;;0.70;0.37;;;23.90;11.00;;;;;;4960752;28;20486;-79
2023/08/11 10:12:43;;;;;;;0.80;0.43;;;24.10;1.00;;;;;;4960431;28;21018;-79
2023/08/11 10:15:14;;;;;;;0.70;0.10;;;24.10;1.00;;;;;;4961931;28;20928;-78
2023/08/11 10:17:42;;;;;;;0.70;0.10;;;;;;;;;;4959054;28;20514;-79
2023/08/11 10:20:11;;;;;;;0.70;0.10;;;;;;;;;;4958830;28;20450;-78
2023/08/11 10:22:39;;;;;;;0.70;0.10;;;;;;;;;;4956941;28;20454;-79
2023/08/11 10:25:09;;;;;;;0.70;0.20;;;24.40;1.00;;;;;;4958554;28;20467;-79
2023/08/11 10:27:40;;;;;;;0.70;0.10;;;24.40;1.00;;;;;;4962786;28;20872;-79
2023/08/11 10:30:11;;;;;;;0.70;0.10;;;24.50;1.00;;;;;;4962696;28;20629;-79
2023/08/11 10:32:41;;;;;;;0.70;0.10;;;24.60;1.00;;;;;;4959296;28;20482;-79
2023/08/11 10:35:18;;;;;;;0.93;0.63;;;24.70;1.00;;;;;;4962492;28;20491;-80
2023/08/11 10:37:56;;;;;;;0.70;0.20;;;;;;;;;;4963734;28;20450;-79
2023/08/11 10:40:25;;;;;;;0.70;0.10;;;24.80;1.00;;;;;;4963394;29;20431;-79
2023/08/11 10:42:52;;;;;;;0.70;0.10;;;24.90;1.00;;;;;;4962130;28;20469;-79
2023/08/11 10:45:20;;;;;;;1.80;1.70;;;25.00;1.00;;;;;;4960748;28;20562;-79
2023/08/11 10:47:54;;;;;;;0.70;0.10;;;25.00;1.00;;;;;;4963068;28;20450;-78
2023/08/11 10:50:23;;;;;;;0.70;0.20;;;25.10;1.00;;;;;;4959191;28;20500;-78
2023/08/11 10:53:06;;;;;;;0.70;0.10;;;25.10;1.00;;;;;;4960251;28;20513;-77
2023/08/11 10:55:35;;;;;;;0.70;0.13;;;25.20;1.00;;;;;;4967100;28;20842;-77
2023/08/11 10:58:13;;;;;;;0.90;0.70;;;25.30;1.00;;;;;;4966216;28;20449;-76
2023/08/11 11:00:42;;;;;;;0.70;0.10;;;25.40;1.00;;;;;;4957269;28;20453;-77
2023/08/11 11:03:13;;;;;;;0.70;0.10;;;25.40;1.00;;;;;;4955303;28;20451;-78
2023/08/11 11:05:42;;;;;;;0.70;0.10;;;25.50;1.00;;;;;;4962317;28;20530;-78
2023/08/11 11:08:11;;;;;;;0.70;0.10;;;;;;;;;;4961498;28;20451;-78
2023/08/11 11:10:39;;;;;;;0.70;0.10;;;;;;;;;;4961086;28;20928;-78
2023/08/11 11:13:17;;;;;;;0.70;0.33;;;25.80;1.00;;;;;;4960531;28;20454;-78
2023/08/11 11:15:46;;;;;;;0.70;0.10;;;;;;;;;;4957020;28;20466;-79
2023/08/11 11:18:16;;;;;;;0.70;0.10;;;25.80;1.00;;;;;;4955927;28;20457;-77
2023/08/11 11:20:45;;;;;;;0.70;0.10;;;25.90;1.00;;;;;;4959315;28;20475;-79
2023/08/11 11:23:12;;;;;;;0.70;0.10;;;26.00;1.00;;;;;;4954172;28;20442;-78
2023/08/11 11:25:40;;;;;;;0.70;0.10;;;26.00;1.00;;;;;;4954600;28;20468;-78
2023/08/11 11:28:09;;;;;;;0.70;0.10;;;;;;;;;;4956053;28;20579;-77
2023/08/11 11:30:38;;;;;;;0.70;0.20;;;26.10;1.00;;;;;;4954762;28;20582;-77
2023/08/11 11:33:07;;;;;;;0.70;0.20;;;26.20;1.00;;;;;;4955400;28;20545;-79
2023/08/11 11:35:36;;;;;;;0.70;0.20;;;26.20;1.00;;;;;;4956293;28;20474;-78
2023/08/11 11:38:06;;;;;;;0.70;0.20;;;26.30;1.00;;;;;;4961923;28;20525;-78
2023/08/11 11:40:34;;;;;;;0.70;0.10;;;;;;;;;;4960209;28;20451;-78
2023/08/11 11:43:02;;;;;;;0.70;0.13;;;26.30;1.00;;;;;;4958678;28;20467;-79
2023/08/11 11:45:30;;;;;;;0.70;0.20;;;;;;;;;;4940766;29;20503;-78
2023/08/11 11:47:59;;;;;;;0.70;0.10;;;26.50;1.00;;;;;;4940888;29;20534;-79
2023/08/11 11:50:30;;;;;;;0.70;0.20;;;26.60;1.00;;;;;;4953944;28;20490;-78
2023/08/11 11:52:59;;;;;;;0.87;0.70;;;26.60;1.00;;;;;;4955325;28;20440;-78
2023/08/11 11:55:28;;;;;;;0.70;0.20;;;;;;;;;;4939262;29;20876;-78
2023/08/11 11:57:57;;;;;;;0.80;0.37;;;26.70;1.00;;;;;;4937606;29;20538;-78
2023/08/11 12:00:25;;;;;;;0.70;0.10;;;26.70;1.00;;;;;;4938379;29;20451;-78
2023/08/11 12:02:54;;;;;;;0.70;0.20;;;;;;;;;;4940137;29;20889;-78
2023/08/11 12:05:22;;;;;;;0.70;0.10;;;26.80;1.00;;;;;;4939335;29;20479;-78
2023/08/11 12:07:50;;;;;;;0.70;0.10;;;26.90;1.00;;;;;;4940177;29;20491;-78
2023/08/11 12:10:31;;;;;;;0.70;0.10;;;27.00;1.00;;;;;;4938914;29;20491;-79
2023/08/11 12:13:00;;;;;;;0.70;0.30;;;;;;;;;;4941319;29;20440;-79
2023/08/11 12:15:29;;;;;;;0.80;0.30;;;27.10;1.00;;;;;;4944699;29;20515;-79
2023/08/11 12:17:59;;;;;;;0.70;0.10;;;27.10;1.00;;;;;;4943888;29;20474;-79
2023/08/11 12:20:29;;;;;;;0.70;0.20;;;27.20;1.00;;;;;;4944330;29;20448;-79
2023/08/11 12:22:58;;;;;;;0.70;0.10;;;;;;;;;;4944124;29;20506;-79
2023/08/11 12:25:27;;;;;;;0.70;0.20;;;27.20;1.00;;;;;;4942852;29;20550;-79
2023/08/11 12:27:55;;;;;;;1.63;1.53;;;27.20;1.00;;;;;;4944007;29;20455;-79
2023/08/11 12:30:23;;;;;;;0.80;0.63;;;27.30;1.00;;;;;;4944202;29;20483;-79
2023/08/11 12:32:51;;;;;;;0.70;0.10;;;;;;;;;;4943913;29;20447;-79
2023/08/11 12:35:19;;;;;;;0.70;0.10;;;27.30;1.00;;;;;;4955069;28;20477;-79
2023/08/11 12:37:48;;;;;;;1.07;0.57;;;;;;;;;;4963680;28;20478;-80
2023/08/11 12:40:18;;;;;;;1.10;1.00;;;;;;;;;;4961923;28;20492;-79
2023/08/11 12:42:47;;;;;;;0.70;0.20;;;27.30;1.00;;;;;;4958324;28;20951;-78
2023/08/11 12:45:15;;;;;;;0.70;0.40;;;27.30;1.00;;;;;;4961625;28;20533;-77
2023/08/11 12:47:43;;;;;;;0.70;0.10;;;27.40;1.00;;;;;;4958747;28;20452;-78
2023/08/11 12:50:12;;;;;;;0.70;0.10;;;27.50;1.00;;;;;;4966439;28;20482;-79
2023/08/11 12:52:40;;;;;;;0.70;0.10;;;27.60;1.00;;;;;;4971728;28;20482;-79
2023/08/11 12:55:10;;;;;;;0.70;0.20;;;27.70;1.00;;;;;;4953767;29;20590;-78
2023/08/11 12:57:38;;;;;;;0.70;0.10;;;27.70;1.00;;;;;;4943521;29;20491;-78
2023/08/11 13:00:10;;;;;;;0.70;0.20;;;27.70;1.00;;;;;;4941054;29;20444;-79
2023/08/11 13:02:38;;;;;;;0.70;0.20;;;27.90;1.00;;;;;;4943610;29;20519;-78
2023/08/11 13:05:06;;;;;;;0.70;0.20;;;27.90;1.00;;;;;;4943250;29;20477;-78
2023/08/11 13:07:34;;;;;;;0.80;0.20;;;;;;;;;;4940672;29;20530;-78
2023/08/11 13:10:04;;;;;;;1.33;0.73;;;;;;;;;;4944413;29;20579;-79
2023/08/11 13:12:32;;;;;;;0.70;0.10;;;28.10;1.00;;;;;;4947875;29;20451;-79
2023/08/11 13:14:59;;;;;;;0.70;0.20;;;28.20;1.00;;;;;;4943287;29;20857;-78
2023/08/11 13:17:29;;;;;;;1.57;1.10;;;;;;;;;;4944989;29;20458;-78
2023/08/11 13:20:01;;;;;;;0.70;0.17;;;;;;;;;;4942145;29;20449;-79
2023/08/11 13:22:28;;;;;;;0.70;0.20;;;28.20;1.00;;;;;;4945793;29;21014;-79
2023/08/11 13:24:56;;;;;;;0.70;0.20;;;28.20;1.00;;;;;;4942777;29;20461;-80
2023/08/11 13:27:24;;;;;;;0.70;0.27;;;28.20;1.00;;;;;;4946322;29;20487;-79
2023/08/11 13:29:52;;;;;;;0.70;0.20;;;26.20;1.00;;;;;;4944715;29;20483;-79
2023/08/11 13:32:21;;;;;;;0.70;0.20;;;;;;;;;;4942913;29;20541;-79
2023/08/11 13:34:50;;;;;;;0.70;0.13;;;28.50;1.00;;;;;;4942226;29;20505;-79
2023/08/11 13:37:18;;;;;;;0.70;0.20;;;28.50;1.00;;;;;;4943755;29;20528;-79
2023/08/11 13:39:46;;;;;;;0.90;0.50;;;28.60;1.00;;;;;;4943025;29;20453;-79
2023/08/11 13:42:14;;;;;;;0.70;0.10;;;28.60;1.00;;;;;;4942224;29;20471;-80
2023/08/11 13:44:42;;;;;;;0.83;0.43;;;28.60;1.00;;;;;;4957477;28;20472;-80
2023/08/11 13:47:12;;;;;;;0.70;0.20;;;;;;;;;;4961877;28;20450;-79
2023/08/11 13:49:40;;;;;;;0.70;0.20;;;;;;;;;;4962944;28;20540;-79
2023/08/11 13:52:10;;;;;;;0.70;0.10;;;28.60;1.00;;;;;;4962076;28;20532;-77
2023/08/11 13:54:38;;;;;;;0.80;0.40;;;;;;;;;;4946907;28;20537;-79
2023/08/11 13:57:06;;;;;;;0.70;0.20;;;28.80;1.00;;;;;;4946309;29;20876;-78
2023/08/11 13:59:35;;;;;;;0.70;0.10;;;;;;;;;;4945090;29;20836;-79
2023/08/11 14:02:02;;;;;;;0.70;0.20;;;28.90;1.00;;;;;;4941764;29;20549;-78
2023/08/11 14:04:30;;;;;;;0.70;0.10;;;29.00;1.00;;;;;;4938303;29;20568;-79
2023/08/11 14:06:58;;;;;;;1.73;0.40;;;29.10;1.00;;;;;;4940577;29;20955;-79
2023/08/11 14:09:48;;;;;;;0.70;0.10;;;29.00;1.00;;;;;;4941767;29;20451;-79
2023/08/11 14:12:17;;;;;;;0.90;0.43;;;29.10;1.00;;;;;;4952737;28;20485;-79
2023/08/11 14:14:45;;;;;;;0.70;0.10;;;;;;;;;;4961159;28;20488;-79
2023/08/11 14:17:13;;;;;;;0.70;0.20;;;29.30;1.00;;;;;;4961137;28;20528;-80
2023/08/11 14:19:41;;;;;;;0.70;0.20;;;29.40;1.00;;;;;;4962271;28;20445;-79
2023/08/11 14:22:09;;;;;;;0.70;0.17;;;29.30;1.00;;;;;;4960940;28;20473;-80
2023/08/11 14:24:37;;;;;;;1.17;1.07;;;29.30;1.00;;;;;;4963964;28;20838;-79
2023/08/11 14:27:07;;;;;;;0.70;0.20;;;29.40;1.00;;;;;;4965281;28;20931;-79
2023/08/11 14:29:35;;;;;;;0.70;0.20;;;29.40;1.00;;;;;;4963794;28;20436;-79
2023/08/11 14:32:04;;;;;;;0.70;0.10;;;29.40;1.00;;;;;;4961536;28;20513;-79
2023/08/11 14:34:52;;;;;;;0.70;0.10;;;29.50;1.00;;;;;;4963094;28;20513;-80
2023/08/11 14:37:20;;;;;;;0.70;0.17;;;29.50;1.00;;;;;;4962879;28;20545;-79
2023/08/11 14:39:49;;;;;;;0.70;0.10;;;29.50;1.00;;;;;;4963195;28;20449;-79
2023/08/11 14:42:19;;;;;;;0.70;0.10;;;29.50;1.00;;;;;;4958018;28;20981;-78
2023/08/11 14:44:47;;;;;;;0.70;0.10;;;29.60;1.00;;;;;;4959243;28;20494;-79
2023/08/11 14:47:15;;;;;;;0.80;0.30;;;29.60;1.00;;;;;;4962396;28;20477;-79
2023/08/11 14:49:44;;;;;;;0.70;0.40;;;29.60;1.00;;;;;;4962446;28;20519;-80
2023/08/11 14:52:12;;;;;;;0.70;0.17;;;29.70;1.00;;;;;;4959477;28;20558;-79
2023/08/11 14:54:42;;;;;;;1.03;0.93;;;29.80;1.00;;;;;;4942978;29;20495;-79
2023/08/11 14:57:12;;;;;;;0.70;0.10;;;29.70;1.00;;;;;;4941503;29;20538;-80
2023/08/11 14:59:42;;;;;;;0.70;0.10;;;29.70;1.00;;;;;;4942715;29;20462;-79
2023/08/11 15:02:10;;;;;;;2.70;2.20;;;29.80;1.00;;;;;;4942176;29;20503;-79
2023/08/11 15:04:38;;;;;;;0.70;0.30;;;29.80;1.00;;;;;;4950804;28;20502;-79
2023/08/11 15:07:07;;;;;;;1.33;0.83;;;;;;;;;;4960543;28;20454;-79
2023/08/11 15:09:35;;;;;;;0.70;0.20;;;;;;;;;;4957176;28;20443;-79
2023/08/11 15:12:03;;;;;;;0.70;0.20;;;;;;;;;;4962085;28;20572;-79
2023/08/11 15:14:32;;;;;;;0.70;0.33;;;31.40;1.00;;;;;;4956742;28;20498;-78
2023/08/11 15:17:01;;;;;;;0.70;0.10;;;29.80;1.00;;;;;;4958769;28;20485;-78
2023/08/11 15:19:30;;;;;;;0.70;0.20;;;29.80;1.00;;;;;;4951697;28;20477;-79
2023/08/11 15:21:58;;;;;;;0.70;0.10;;;29.80;1.00;;;;;;4950618;28;20461;-77
2023/08/11 15:24:26;;;;;;;0.70;0.10;;;29.70;1.00;;;;;;4950615;28;20462;-77
2023/08/11 15:26:54;;;;;;;0.70;0.20;;;29.80;1.00;;;;;;4952884;28;20536;-79
2023/08/11 15:29:22;;;;;;;0.70;0.10;;;29.80;1.00;;;;;;4954718;28;20446;-80
2023/08/11 15:31:50;;;;;;;0.80;0.40;;;;;;;;;;4956500;28;20486;-79
2023/08/11 15:34:22;;;;;;;3.43;1.90;;;29.80;1.00;;;;;;4956089;28;21076;-80
2023/08/11 15:36:51;;;;;;;0.70;0.20;;;;;;;;;;4958678;28;20474;-81
2023/08/11 15:39:19;;;;;;;0.70;0.10;;;29.90;1.00;;;;;;4959644;28;20469;-80
2023/08/11 15:41:47;;;;;;;0.70;0.20;;;29.90;1.00;;;;;;4959642;28;20580;-79
2023/08/11 15:44:15;;;;;;;0.70;0.10;;;29.80;1.00;;;;;;4958623;28;20478;-80
2023/08/11 15:46:43;;;;;;;1.43;1.30;;;29.80;1.00;;;;;;4966382;28;20521;-81
2023/08/11 15:49:11;;;;;;;1.27;0.30;;;29.80;1.00;;;;;;4972136;28;20515;-80
2023/08/11 15:51:40;;;;;;;0.97;0.40;;;29.80;1.00;;;;;;4972584;28;20482;-79
2023/08/11 15:54:08;;;;;;;0.90;0.20;;;30.00;1.00;;;;;;4970930;28;20453;-79
2023/08/11 15:56:36;;;;;;;0.70;0.20;;;30.20;1.00;;;;;;4972286;29;20466;-81
2023/08/11 15:59:05;;;;;;;0.70;0.20;;;30.30;1.00;;;;;;4961439;28;20473;-76
2023/08/11 16:01:33;;;;;;;0.70;0.20;;;30.50;1.00;;;;;;4955305;28;20446;-78
2023/08/11 16:04:02;;;;;;;0.70;0.20;;;30.60;1.00;;;;;;4964736;28;20478;-77
2023/08/11 16:06:31;;;;;;;0.70;0.20;;;30.80;1.00;;;;;;4970199;28;20515;-76
2023/08/11 16:09:00;;;;;;;0.90;0.23;;;30.80;1.00;;;;;;4962765;28;20514;-77
2023/08/11 16:11:28;;;;;;;0.80;0.40;;;31.00;1.00;;;;;;4956019;28;20486;-75
2023/08/11 16:13:56;;;;;;;0.70;0.10;;;31.00;1.00;;;;;;4970544;28;20462;-76
2023/08/11 16:16:24;;;;;;;0.70;0.30;;;31.10;1.00;;;;;;4953407;28;20488;-76
2023/08/11 16:18:52;;;;;;;0.70;0.20;;;31.10;1.00;;;;;;4961348;28;20498;-78
2023/08/11 16:21:21;;;;;;;0.70;0.10;;;31.00;1.00;;;;;;4948120;28;20486;-77
2023/08/11 16:23:49;;;;;;;0.70;0.20;;;31.00;1.00;;;;;;4958815;28;20450;-77
2023/08/11 16:26:18;;;;;;;1.10;0.93;;;31.00;1.00;;;;;;4955515;28;20470;-77
2023/08/11 16:28:46;;;;;;;0.70;0.10;;;30.80;1.00;;;;;;4966537;29;20478;-76
2023/08/11 16:31:14;;;;;;;0.70;0.10;;;31.00;1.00;;;;;;4966264;29;20494;-78
2023/08/11 16:33:42;;;;;;;0.70;0.20;;;31.00;1.00;;;;;;4963352;28;20442;-77
2023/08/11 16:36:11;;;;;;;0.70;0.20;;;31.10;1.00;;;;;;4958720;28;20478;-77
2023/08/11 16:38:38;;;;;;;0.70;0.20;;;31.30;1.00;;;;;;4954263;29;20558;-74
2023/08/11 16:41:07;;;;;;;0.90;0.50;;;31.60;1.00;;;;;;4959692;28;20451;-77
2023/08/11 16:43:36;;;;;;;0.70;0.20;;;31.80;1.00;;;;;;4953073;28;20458;-77
2023/08/11 16:46:03;;;;;;;0.70;0.20;;;31.70;1.00;;;;;;4949922;29;20980;-77
2023/08/11 16:48:31;;;;;;;0.70;0.20;;;31.80;1.00;;;;;;4956575;28;20463;-75
2023/08/11 16:51:00;;;;;;;1.33;0.77;;;31.80;1.00;;;;;;4953411;28;20448;-76
2023/08/11 16:53:27;;;;;;;0.70;0.20;;;31.90;1.00;;;;;;4939251;29;20523;-76
2023/08/11 16:55:55;;;;;;;0.70;0.10;;;31.90;1.00;;;;;;4952691;28;20474;-74
2023/08/11 16:58:23;;;;;;;0.70;0.20;;;32.10;1.00;;;;;;4962617;28;20451;-76
2023/08/11 17:00:56;;;;;;;0.70;0.20;;;31.90;1.00;;;;;;4962600;28;20553;-75
2023/08/11 17:03:23;;;;;;;0.70;0.10;;;31.90;1.00;;;;;;4969478;28;20446;-75
2023/08/11 17:05:52;;;;;;;0.70;0.13;;;32.00;1.00;;;;;;4962790;28;20470;-76
2023/08/11 17:08:20;;;;;;;0.70;0.10;;;32.20;1.00;;;;;;4957211;28;20505;-77
2023/08/11 17:10:48;;;;;;;0.70;0.10;;;32.30;1.00;;;;;;4957463;28;20446;-77
2023/08/11 17:13:15;;;;;;;0.70;0.20;;;32.40;1.00;;;;;;4957188;28;20580;-74
2023/08/11 17:15:43;;;;;;;0.70;0.20;;;32.60;1.00;;;;;;4957945;28;20529;-74
2023/08/11 17:18:13;;;;;;;0.70;0.20;;;32.60;1.00;;;;;;4957604;28;20796;-74
2023/08/11 17:20:41;;;;;;;0.70;0.13;;;32.80;1.00;;;;;;4957155;28;20450;-74